الصفحة الرئيسية
METAR-TAF:

METAR-TAF

مطار :

Chumphon, تايلاند

دائرة عرض: 10-42-40N, خط طول: 099-21-42E, ارتفاع: 5 متر

مراقبة الطقس الحالي

تاريخ ووقت الإصدار 6ساعات و 14 دقيقة قبل الساعة 11:00UTC
ريح 3 عقدة من الغرب/الشمال الغربي
درجة الحرارة 27°درجة مئوية
الرطوبة 74%
ضغط 1010 hPa
الرؤية: 9000 متر
غيوم قليلة على ارتفاع 1800 قدم, مزن ركامية عمودية.
غيوم متفرقة على ارتفاع 2000 قدم
غيوم مفككة على ارتفاع 10000 قدم
مطر خفيف

METAR: VTSE 211100Z 29003KT 9000 -RA FEW018TCU SCT020 BKN100 27/22 Q1010 NOSIG

زمن: 00:14 (17:14 UTC)

توقعات

تاريخ ووقت الإصدار 6ساعات و 14 دقيقة قبل الساعة 11:00UTC
التوقعات صالحة من21 الساعة 12 UTC إلى 22 الساعة 12 UTC
ريح 3 عقدة من الغرب/الشمال الغربي
الرؤية 10 كم أو أكثر
غيوم قليلة على ارتفاع 2000 قدم
غيوم مفككة على ارتفاع 10000 قدم
مؤقت
من 22 الساعة 02 UTC إلى 22 الساعة 12 UTC
ريح 15 عقدةمن اتجاهات متغيرة تتزايد حتى 25 عقدة
الرؤية: 4000 متر
مطر

TAF: VTSE 211100Z 2112/2212 29003KT 9999 FEW020 BKN100 TEMPO 2202/2212 VRB15G25KT 4000 RA

أرصاد الطقس والتوقعات من أكثر من 4000 مطار (تقارير الطقس للمطار METAR والتنبؤ بالطقس بالمطارTAF).

المحطات المتاحة هي النقط الصفراء والحمراء على الخريطة.

حرك المؤشر فوق النقطة لمعرفة اسم المحطة.

ثم انقر لمعرفة أرصاد وتوقعات الطقس.

لتغيير الخارطة: اضغط على الأزرار الخضراء مع رمز الصليب الأسود للتكبير. على الزر الأخضر مع شرطة للتصغير، أو على الأسهم الخضراء للخرائط المجاورة.


METAR-TAF: